sensor_id;sensor_type;location;lat;lon;timestamp;P1;durP1;ratioP1;P2;durP2;ratioP2
6243;SDS011;3155;49.940;8.450;2023-05-16T00:00:54;9.90;;;4.68;;
6243;SDS011;3155;49.940;8.450;2023-05-16T00:03:23;5.88;;;4.25;;
6243;SDS011;3155;49.940;8.450;2023-05-16T00:05:53;7.90;;;3.83;;
6243;SDS011;3155;49.940;8.450;2023-05-16T00:08:21;6.15;;;4.32;;
6243;SDS011;3155;49.940;8.450;2023-05-16T00:10:48;5.40;;;4.25;;
6243;SDS011;3155;49.940;8.450;2023-05-16T00:13:14;4.85;;;4.07;;
6243;SDS011;3155;49.940;8.450;2023-05-16T00:15:47;6.93;;;4.50;;
6243;SDS011;3155;49.940;8.450;2023-05-16T00:18:14;5.25;;;4.30;;
6243;SDS011;3155;49.940;8.450;2023-05-16T00:20:42;8.50;;;4.97;;
6243;SDS011;3155;49.940;8.450;2023-05-16T00:23:09;10.35;;;4.95;;
6243;SDS011;3155;49.940;8.450;2023-05-16T00:25:40;5.28;;;3.80;;
6243;SDS011;3155;49.940;8.450;2023-05-16T00:28:07;7.85;;;4.53;;
6243;SDS011;3155;49.940;8.450;2023-05-16T00:30:34;7.82;;;4.63;;
6243;SDS011;3155;49.940;8.450;2023-05-16T00:33:00;6.72;;;4.15;;
6243;SDS011;3155;49.940;8.450;2023-05-16T00:35:27;5.80;;;3.83;;
6243;SDS011;3155;49.940;8.450;2023-05-16T00:37:54;5.22;;;4.35;;
6243;SDS011;3155;49.940;8.450;2023-05-16T00:40:21;6.18;;;3.65;;
6243;SDS011;3155;49.940;8.450;2023-05-16T00:42:48;5.55;;;4.63;;
6243;SDS011;3155;49.940;8.450;2023-05-16T00:45:15;5.00;;;3.73;;
6243;SDS011;3155;49.940;8.450;2023-05-16T00:47:41;6.22;;;4.03;;
6243;SDS011;3155;49.940;8.450;2023-05-16T00:50:08;5.78;;;3.53;;
6243;SDS011;3155;49.940;8.450;2023-05-16T00:52:35;5.85;;;3.40;;
6243;SDS011;3155;49.940;8.450;2023-05-16T00:55:05;4.55;;;3.58;;
6243;SDS011;3155;49.940;8.450;2023-05-16T00:57:33;4.53;;;3.70;;
6243;SDS011;3155;49.940;8.450;2023-05-16T00:59:59;4.93;;;3.83;;
6243;SDS011;3155;49.940;8.450;2023-05-16T01:02:27;4.93;;;3.83;;
6243;SDS011;3155;49.940;8.450;2023-05-16T01:04:54;7.15;;;4.07;;
6243;SDS011;3155;49.940;8.450;2023-05-16T01:07:21;5.27;;;3.97;;
6243;SDS011;3155;49.940;8.450;2023-05-16T01:09:48;8.80;;;3.63;;
6243;SDS011;3155;49.940;8.450;2023-05-16T01:17:48;4.97;;;3.67;;
6243;SDS011;3155;49.940;8.450;2023-05-16T01:27:52;4.45;;;3.80;;
6243;SDS011;3155;49.940;8.450;2023-05-16T01:30:20;4.25;;;3.83;;
6243;SDS011;3155;49.940;8.450;2023-05-16T01:32:47;4.50;;;2.92;;
6243;SDS011;3155;49.940;8.450;2023-05-16T01:35:15;5.15;;;3.55;;
6243;SDS011;3155;49.940;8.450;2023-05-16T01:40:22;4.82;;;3.47;;
6243;SDS011;3155;49.940;8.450;2023-05-16T01:43:06;5.22;;;4.00;;
6243;SDS011;3155;49.940;8.450;2023-05-16T01:45:38;4.03;;;3.47;;
6243;SDS011;3155;49.940;8.450;2023-05-16T01:48:18;5.00;;;3.85;;
6243;SDS011;3155;49.940;8.450;2023-05-16T01:50:51;6.38;;;4.07;;
6243;SDS011;3155;49.940;8.450;2023-05-16T01:53:23;3.35;;;2.88;;
6243;SDS011;3155;49.940;8.450;2023-05-16T01:55:55;4.65;;;2.83;;
6243;SDS011;3155;49.940;8.450;2023-05-16T01:58:24;4.93;;;3.47;;
6243;SDS011;3155;49.940;8.450;2023-05-16T02:00:58;5.13;;;3.43;;
6243;SDS011;3155;49.940;8.450;2023-05-16T02:03:30;6.90;;;3.58;;
6243;SDS011;3155;49.940;8.450;2023-05-16T02:05:57;4.97;;;3.15;;
6243;SDS011;3155;49.940;8.450;2023-05-16T02:08:24;3.58;;;2.83;;
6243;SDS011;3155;49.940;8.450;2023-05-16T02:10:52;3.17;;;2.75;;
6243;SDS011;3155;49.940;8.450;2023-05-16T02:13:19;4.35;;;2.88;;
6243;SDS011;3155;49.940;8.450;2023-05-16T02:15:46;3.60;;;3.22;;
6243;SDS011;3155;49.940;8.450;2023-05-16T02:18:13;3.83;;;2.38;;
6243;SDS011;3155;49.940;8.450;2023-05-16T02:20:39;3.90;;;3.47;;
6243;SDS011;3155;49.940;8.450;2023-05-16T02:23:06;6.40;;;2.45;;
6243;SDS011;3155;49.940;8.450;2023-05-16T02:25:33;6.28;;;2.75;;
6243;SDS011;3155;49.940;8.450;2023-05-16T02:28:00;3.05;;;2.63;;
6243;SDS011;3155;49.940;8.450;2023-05-16T02:30:29;4.05;;;3.05;;
6243;SDS011;3155;49.940;8.450;2023-05-16T02:32:56;3.97;;;2.58;;
6243;SDS011;3155;49.940;8.450;2023-05-16T02:35:23;4.97;;;3.38;;
6243;SDS011;3155;49.940;8.450;2023-05-16T02:37:51;3.63;;;2.83;;
6243;SDS011;3155;49.940;8.450;2023-05-16T02:40:17;7.20;;;3.20;;
6243;SDS011;3155;49.940;8.450;2023-05-16T02:42:44;5.90;;;2.55;;
6243;SDS011;3155;49.940;8.450;2023-05-16T02:45:11;8.60;;;3.85;;
6243;SDS011;3155;49.940;8.450;2023-05-16T02:47:38;4.10;;;2.97;;
6243;SDS011;3155;49.940;8.450;2023-05-16T02:50:04;4.18;;;3.47;;
6243;SDS011;3155;49.940;8.450;2023-05-16T02:52:31;5.03;;;3.17;;
6243;SDS011;3155;49.940;8.450;2023-05-16T02:54:58;3.85;;;2.80;;
6243;SDS011;3155;49.940;8.450;2023-05-16T02:57:45;5.57;;;3.42;;
6243;SDS011;3155;49.940;8.450;2023-05-16T03:00:12;5.28;;;3.20;;
6243;SDS011;3155;49.940;8.450;2023-05-16T03:02:43;7.40;;;3.42;;
6243;SDS011;3155;49.940;8.450;2023-05-16T03:05:10;4.90;;;3.25;;
6243;SDS011;3155;49.940;8.450;2023-05-16T03:07:37;6.97;;;2.75;;
6243;SDS011;3155;49.940;8.450;2023-05-16T03:10:04;5.97;;;2.95;;
6243;SDS011;3155;49.940;8.450;2023-05-16T03:12:32;8.25;;;4.30;;
6243;SDS011;3155;49.940;8.450;2023-05-16T03:14:58;5.45;;;3.53;;
6243;SDS011;3155;49.940;8.450;2023-05-16T03:17:28;6.00;;;2.53;;
6243;SDS011;3155;49.940;8.450;2023-05-16T03:19:55;3.78;;;2.80;;
6243;SDS011;3155;49.940;8.450;2023-05-16T03:22:22;4.93;;;3.15;;
6243;SDS011;3155;49.940;8.450;2023-05-16T03:24:49;3.28;;;2.97;;
6243;SDS011;3155;49.940;8.450;2023-05-16T03:27:15;5.85;;;3.85;;
6243;SDS011;3155;49.940;8.450;2023-05-16T03:29:42;5.00;;;2.55;;
6243;SDS011;3155;49.940;8.450;2023-05-16T03:32:09;6.27;;;3.03;;
6243;SDS011;3155;49.940;8.450;2023-05-16T03:34:37;5.85;;;2.70;;
6243;SDS011;3155;49.940;8.450;2023-05-16T03:37:03;3.83;;;2.88;;
6243;SDS011;3155;49.940;8.450;2023-05-16T03:39:31;6.78;;;2.22;;
6243;SDS011;3155;49.940;8.450;2023-05-16T03:41:57;4.45;;;2.95;;
6243;SDS011;3155;49.940;8.450;2023-05-16T03:44:24;7.40;;;2.67;;
6243;SDS011;3155;49.940;8.450;2023-05-16T03:46:51;3.07;;;2.40;;
6243;SDS011;3155;49.940;8.450;2023-05-16T03:49:19;5.05;;;3.65;;
6243;SDS011;3155;49.940;8.450;2023-05-16T03:51:48;5.38;;;3.03;;
6243;SDS011;3155;49.940;8.450;2023-05-16T03:54:15;3.92;;;2.80;;
6243;SDS011;3155;49.940;8.450;2023-05-16T03:56:42;5.32;;;2.70;;
6243;SDS011;3155;49.940;8.450;2023-05-16T03:59:09;3.60;;;2.25;;
6243;SDS011;3155;49.940;8.450;2023-05-16T04:01:36;2.67;;;2.40;;
6243;SDS011;3155;49.940;8.450;2023-05-16T04:04:03;3.03;;;2.65;;
6243;SDS011;3155;49.940;8.450;2023-05-16T04:06:29;5.00;;;1.83;;
6243;SDS011;3155;49.940;8.450;2023-05-16T04:08:57;3.20;;;1.70;;
6243;SDS011;3155;49.940;8.450;2023-05-16T04:11:23;3.90;;;1.90;;
6243;SDS011;3155;49.940;8.450;2023-05-16T04:13:51;1.73;;;1.63;;
6243;SDS011;3155;49.940;8.450;2023-05-16T04:16:19;5.60;;;1.95;;
6243;SDS011;3155;49.940;8.450;2023-05-16T04:18:46;1.70;;;1.48;;
6243;SDS011;3155;49.940;8.450;2023-05-16T04:21:13;2.60;;;1.65;;
6243;SDS011;3155;49.940;8.450;2023-05-16T04:23:42;2.42;;;1.30;;
6243;SDS011;3155;49.940;8.450;2023-05-16T04:26:08;1.45;;;1.35;;
6243;SDS011;3155;49.940;8.450;2023-05-16T04:28:35;1.48;;;1.48;;
6243;SDS011;3155;49.940;8.450;2023-05-16T04:31:02;1.08;;;1.08;;
6243;SDS011;3155;49.940;8.450;2023-05-16T04:33:29;1.90;;;1.10;;
6243;SDS011;3155;49.940;8.450;2023-05-16T04:35:56;1.10;;;1.00;;
6243;SDS011;3155;49.940;8.450;2023-05-16T04:38:23;0.80;;;0.80;;
6243;SDS011;3155;49.940;8.450;2023-05-16T04:40:50;1.63;;;1.20;;
6243;SDS011;3155;49.940;8.450;2023-05-16T04:43:19;0.40;;;0.40;;
6243;SDS011;3155;49.940;8.450;2023-05-16T04:45:49;0.67;;;0.63;;
6243;SDS011;3155;49.940;8.450;2023-05-16T04:48:15;0.38;;;0.38;;
6243;SDS011;3155;49.940;8.450;2023-05-16T04:50:42;0.43;;;0.43;;
6243;SDS011;3155;49.940;8.450;2023-05-16T04:53:09;0.60;;;0.60;;
6243;SDS011;3155;49.940;8.450;2023-05-16T04:55:36;0.45;;;0.45;;
6243;SDS011;3155;49.940;8.450;2023-05-16T04:58:02;6.50;;;0.70;;
6243;SDS011;3155;49.940;8.450;2023-05-16T05:00:29;1.08;;;0.50;;
6243;SDS011;3155;49.940;8.450;2023-05-16T05:02:56;0.45;;;0.45;;
6243;SDS011;3155;49.940;8.450;2023-05-16T05:05:23;0.40;;;0.40;;
6243;SDS011;3155;49.940;8.450;2023-05-16T05:07:50;2.55;;;0.65;;
6243;SDS011;3155;49.940;8.450;2023-05-16T05:10:16;0.35;;;0.35;;
6243;SDS011;3155;49.940;8.450;2023-05-16T05:12:43;0.25;;;0.25;;
6243;SDS011;3155;49.940;8.450;2023-05-16T05:15:10;0.40;;;0.40;;
6243;SDS011;3155;49.940;8.450;2023-05-16T05:17:37;0.10;;;0.10;;
6243;SDS011;3155;49.940;8.450;2023-05-16T05:20:04;0.90;;;0.55;;
6243;SDS011;3155;49.940;8.450;2023-05-16T05:22:34;0.40;;;0.40;;
6243;SDS011;3155;49.940;8.450;2023-05-16T05:25:01;0.55;;;0.55;;
6243;SDS011;3155;49.940;8.450;2023-05-16T05:27:28;0.10;;;0.10;;
6243;SDS011;3155;49.940;8.450;2023-05-16T05:29:57;0.30;;;0.30;;
6243;SDS011;3155;49.940;8.450;2023-05-16T05:32:24;0.30;;;0.30;;
6243;SDS011;3155;49.940;8.450;2023-05-16T05:34:51;0.28;;;0.28;;
6243;SDS011;3155;49.940;8.450;2023-05-16T05:37:18;0.30;;;0.30;;
6243;SDS011;3155;49.940;8.450;2023-05-16T05:39:45;0.40;;;0.40;;
6243;SDS011;3155;49.940;8.450;2023-05-16T05:42:11;1.70;;;0.40;;
6243;SDS011;3155;49.940;8.450;2023-05-16T05:44:38;0.38;;;0.20;;
6243;SDS011;3155;49.940;8.450;2023-05-16T05:47:05;0.37;;;0.37;;
6243;SDS011;3155;49.940;8.450;2023-05-16T05:49:32;0.30;;;0.30;;
6243;SDS011;3155;49.940;8.450;2023-05-16T05:51:59;0.50;;;0.50;;
6243;SDS011;3155;49.940;8.450;2023-05-16T05:54:29;0.20;;;0.20;;
6243;SDS011;3155;49.940;8.450;2023-05-16T05:56:59;0.30;;;0.30;;
6243;SDS011;3155;49.940;8.450;2023-05-16T05:59:26;0.30;;;0.30;;
6243;SDS011;3155;49.940;8.450;2023-05-16T06:01:52;0.30;;;0.30;;
6243;SDS011;3155;49.940;8.450;2023-05-16T06:04:20;0.28;;;0.28;;
6243;SDS011;3155;49.940;8.450;2023-05-16T06:06:47;0.30;;;0.30;;
6243;SDS011;3155;49.940;8.450;2023-05-16T06:09:14;0.30;;;0.20;;
6243;SDS011;3155;49.940;8.450;2023-05-16T06:11:43;0.80;;;0.38;;
6243;SDS011;3155;49.940;8.450;2023-05-16T06:14:11;0.20;;;0.20;;
6243;SDS011;3155;49.940;8.450;2023-05-16T06:16:39;1.10;;;0.20;;
6243;SDS011;3155;49.940;8.450;2023-05-16T06:19:06;0.20;;;0.20;;
6243;SDS011;3155;49.940;8.450;2023-05-16T06:21:33;0.27;;;0.27;;
6243;SDS011;3155;49.940;8.450;2023-05-16T06:23:59;0.20;;;0.20;;
6243;SDS011;3155;49.940;8.450;2023-05-16T06:26:26;0.30;;;0.30;;
6243;SDS011;3155;49.940;8.450;2023-05-16T06:28:53;0.20;;;0.20;;
6243;SDS011;3155;49.940;8.450;2023-05-16T06:31:19;0.20;;;0.20;;
6243;SDS011;3155;49.940;8.450;2023-05-16T06:33:46;0.10;;;0.10;;
6243;SDS011;3155;49.940;8.450;2023-05-16T06:36:13;0.30;;;0.30;;
6243;SDS011;3155;49.940;8.450;2023-05-16T06:38:39;0.20;;;0.20;;
6243;SDS011;3155;49.940;8.450;2023-05-16T06:41:06;0.30;;;0.30;;
6243;SDS011;3155;49.940;8.450;2023-05-16T06:43:33;0.20;;;0.20;;
6243;SDS011;3155;49.940;8.450;2023-05-16T06:45:59;0.20;;;0.20;;
6243;SDS011;3155;49.940;8.450;2023-05-16T06:48:26;0.30;;;0.30;;
6243;SDS011;3155;49.940;8.450;2023-05-16T06:50:53;0.10;;;0.10;;
6243;SDS011;3155;49.940;8.450;2023-05-16T06:53:20;0.20;;;0.20;;
6243;SDS011;3155;49.940;8.450;2023-05-16T06:55:47;0.20;;;0.20;;
6243;SDS011;3155;49.940;8.450;2023-05-16T06:58:14;0.20;;;0.20;;
6243;SDS011;3155;49.940;8.450;2023-05-16T07:00:44;0.20;;;0.20;;
6243;SDS011;3155;49.940;8.450;2023-05-16T07:03:11;0.20;;;0.20;;
6243;SDS011;3155;49.940;8.450;2023-05-16T07:05:38;0.13;;;0.13;;
6243;SDS011;3155;49.940;8.450;2023-05-16T07:08:08;0.10;;;0.10;;
6243;SDS011;3155;49.940;8.450;2023-05-16T07:10:38;0.20;;;0.20;;
6243;SDS011;3155;49.940;8.450;2023-05-16T07:13:07;0.30;;;0.30;;
6243;SDS011;3155;49.940;8.450;2023-05-16T07:15:39;0.10;;;0.10;;
6243;SDS011;3155;49.940;8.450;2023-05-16T07:18:06;0.30;;;0.20;;
6243;SDS011;3155;49.940;8.450;2023-05-16T07:20:33;0.30;;;0.30;;
6243;SDS011;3155;49.940;8.450;2023-05-16T07:23:00;0.20;;;0.20;;
6243;SDS011;3155;49.940;8.450;2023-05-16T07:25:29;0.13;;;0.13;;
6243;SDS011;3155;49.940;8.450;2023-05-16T07:27:57;0.20;;;0.20;;
6243;SDS011;3155;49.940;8.450;2023-05-16T07:30:24;0.20;;;0.20;;
6243;SDS011;3155;49.940;8.450;2023-05-16T07:32:51;0.40;;;0.40;;
6243;SDS011;3155;49.940;8.450;2023-05-16T07:35:18;3.90;;;0.22;;
6243;SDS011;3155;49.940;8.450;2023-05-16T07:37:45;0.30;;;0.30;;
6243;SDS011;3155;49.940;8.450;2023-05-16T07:40:12;0.20;;;0.20;;
6243;SDS011;3155;49.940;8.450;2023-05-16T07:45:41;0.15;;;0.15;;
6243;SDS011;3155;49.940;8.450;2023-05-16T07:48:08;0.10;;;0.10;;
6243;SDS011;3155;49.940;8.450;2023-05-16T07:50:35;0.20;;;0.20;;
6243;SDS011;3155;49.940;8.450;2023-05-16T07:53:02;0.20;;;0.20;;
6243;SDS011;3155;49.940;8.450;2023-05-16T07:55:29;0.10;;;0.10;;
6243;SDS011;3155;49.940;8.450;2023-05-16T07:57:56;0.10;;;0.10;;
6243;SDS011;3155;49.940;8.450;2023-05-16T08:00:25;0.10;;;0.10;;
6243;SDS011;3155;49.940;8.450;2023-05-16T08:02:56;0.30;;;0.30;;
6243;SDS011;3155;49.940;8.450;2023-05-16T08:05:23;0.10;;;0.10;;
6243;SDS011;3155;49.940;8.450;2023-05-16T08:07:50;0.00;;;0.00;;
6243;SDS011;3155;49.940;8.450;2023-05-16T08:10:16;0.15;;;0.15;;
6243;SDS011;3155;49.940;8.450;2023-05-16T08:12:45;0.00;;;0.00;;
6243;SDS011;3155;49.940;8.450;2023-05-16T08:15:13;0.20;;;0.20;;
6243;SDS011;3155;49.940;8.450;2023-05-16T08:17:40;0.10;;;0.10;;
6243;SDS011;3155;49.940;8.450;2023-05-16T08:20:07;0.10;;;0.10;;
6243;SDS011;3155;49.940;8.450;2023-05-16T08:22:34;0.10;;;0.10;;
6243;SDS011;3155;49.940;8.450;2023-05-16T08:25:01;0.20;;;0.20;;
6243;SDS011;3155;49.940;8.450;2023-05-16T08:27:28;0.10;;;0.10;;
6243;SDS011;3155;49.940;8.450;2023-05-16T08:29:55;0.20;;;0.20;;
6243;SDS011;3155;49.940;8.450;2023-05-16T08:32:21;0.00;;;0.00;;
6243;SDS011;3155;49.940;8.450;2023-05-16T08:34:50;0.20;;;0.20;;
6243;SDS011;3155;49.940;8.450;2023-05-16T08:37:17;0.10;;;0.10;;
6243;SDS011;3155;49.940;8.450;2023-05-16T08:39:44;0.07;;;0.07;;
6243;SDS011;3155;49.940;8.450;2023-05-16T08:42:14;0.20;;;0.20;;
6243;SDS011;3155;49.940;8.450;2023-05-16T08:44:44;0.10;;;0.10;;
6243;SDS011;3155;49.940;8.450;2023-05-16T08:47:12;0.10;;;0.10;;
6243;SDS011;3155;49.940;8.450;2023-05-16T08:49:47;0.10;;;0.10;;
6243;SDS011;3155;49.940;8.450;2023-05-16T08:52:18;0.10;;;0.10;;
6243;SDS011;3155;49.940;8.450;2023-05-16T08:54:52;0.10;;;0.10;;
6243;SDS011;3155;49.940;8.450;2023-05-16T08:57:35;0.10;;;0.10;;
6243;SDS011;3155;49.940;8.450;2023-05-16T09:00:05;0.17;;;0.17;;
6243;SDS011;3155;49.940;8.450;2023-05-16T09:02:38;0.10;;;0.10;;
6243;SDS011;3155;49.940;8.450;2023-05-16T09:05:24;0.20;;;0.20;;
6243;SDS011;3155;49.940;8.450;2023-05-16T09:07:53;0.10;;;0.10;;
6243;SDS011;3155;49.940;8.450;2023-05-16T09:10:20;0.10;;;0.10;;
6243;SDS011;3155;49.940;8.450;2023-05-16T09:12:47;0.55;;;0.55;;
6243;SDS011;3155;49.940;8.450;2023-05-16T09:15:13;0.20;;;0.20;;
6243;SDS011;3155;49.940;8.450;2023-05-16T09:17:44;0.10;;;0.10;;
6243;SDS011;3155;49.940;8.450;2023-05-16T09:20:13;0.20;;;0.20;;
6243;SDS011;3155;49.940;8.450;2023-05-16T09:25:19;0.10;;;0.10;;
6243;SDS011;3155;49.940;8.450;2023-05-16T09:27:57;0.50;;;0.22;;
6243;SDS011;3155;49.940;8.450;2023-05-16T09:30:29;0.20;;;0.20;;
6243;SDS011;3155;49.940;8.450;2023-05-16T09:32:58;0.10;;;0.10;;
6243;SDS011;3155;49.940;8.450;2023-05-16T09:35:31;0.15;;;0.15;;
6243;SDS011;3155;49.940;8.450;2023-05-16T09:38:01;0.10;;;0.10;;
6243;SDS011;3155;49.940;8.450;2023-05-16T09:40:28;0.10;;;0.10;;
6243;SDS011;3155;49.940;8.450;2023-05-16T09:45:35;0.10;;;0.10;;
6243;SDS011;3155;49.940;8.450;2023-05-16T09:48:03;0.10;;;0.10;;
6243;SDS011;3155;49.940;8.450;2023-05-16T09:50:32;0.10;;;0.10;;
6243;SDS011;3155;49.940;8.450;2023-05-16T09:53:00;0.20;;;0.20;;
6243;SDS011;3155;49.940;8.450;2023-05-16T09:55:28;0.10;;;0.10;;
6243;SDS011;3155;49.940;8.450;2023-05-16T09:57:55;0.40;;;0.40;;
6243;SDS011;3155;49.940;8.450;2023-05-16T10:00:27;0.13;;;0.13;;
6243;SDS011;3155;49.940;8.450;2023-05-16T10:02:57;0.10;;;0.10;;
6243;SDS011;3155;49.940;8.450;2023-05-16T10:05:28;0.28;;;0.28;;
6243;SDS011;3155;49.940;8.450;2023-05-16T10:07:56;0.20;;;0.20;;
6243;SDS011;3155;49.940;8.450;2023-05-16T10:10:24;0.10;;;0.10;;
6243;SDS011;3155;49.940;8.450;2023-05-16T10:12:54;0.60;;;0.20;;
6243;SDS011;3155;49.940;8.450;2023-05-16T10:15:26;1.20;;;0.50;;
6243;SDS011;3155;49.940;8.450;2023-05-16T10:17:55;0.30;;;0.30;;
6243;SDS011;3155;49.940;8.450;2023-05-16T10:20:28;2.80;;;0.30;;
6243;SDS011;3155;49.940;8.450;2023-05-16T10:22:55;0.30;;;0.30;;
6243;SDS011;3155;49.940;8.450;2023-05-16T10:28:01;1.10;;;0.40;;
6243;SDS011;3155;49.940;8.450;2023-05-16T10:30:32;0.70;;;0.70;;
6243;SDS011;3155;49.940;8.450;2023-05-16T10:33:00;0.45;;;0.45;;
6243;SDS011;3155;49.940;8.450;2023-05-16T10:35:33;1.00;;;0.70;;
6243;SDS011;3155;49.940;8.450;2023-05-16T10:38:00;0.30;;;0.20;;
6243;SDS011;3155;49.940;8.450;2023-05-16T10:40:27;0.27;;;0.27;;
6243;SDS011;3155;49.940;8.450;2023-05-16T10:42:58;1.00;;;0.20;;
6243;SDS011;3155;49.940;8.450;2023-05-16T10:45:26;1.00;;;1.00;;
6243;SDS011;3155;49.940;8.450;2023-05-16T10:48:03;0.40;;;0.40;;
6243;SDS011;3155;49.940;8.450;2023-05-16T10:50:35;0.90;;;0.43;;
6243;SDS011;3155;49.940;8.450;2023-05-16T10:53:19;0.35;;;0.30;;
6243;SDS011;3155;49.940;8.450;2023-05-16T10:55:48;0.30;;;0.30;;
6243;SDS011;3155;49.940;8.450;2023-05-16T11:06:33;1.00;;;0.40;;
6243;SDS011;3155;49.940;8.450;2023-05-16T11:12:08;0.38;;;0.38;;
6243;SDS011;3155;49.940;8.450;2023-05-16T11:19:44;0.38;;;0.30;;
6243;SDS011;3155;49.940;8.450;2023-05-16T11:22:32;2.70;;;0.40;;
6243;SDS011;3155;49.940;8.450;2023-05-16T11:25:06;1.10;;;0.60;;
6243;SDS011;3155;49.940;8.450;2023-05-16T11:27:35;2.50;;;0.77;;
6243;SDS011;3155;49.940;8.450;2023-05-16T11:30:14;0.20;;;0.20;;
6243;SDS011;3155;49.940;8.450;2023-05-16T11:32:44;1.30;;;0.40;;
6243;SDS011;3155;49.940;8.450;2023-05-16T11:35:15;1.30;;;0.40;;
6243;SDS011;3155;49.940;8.450;2023-05-16T11:37:43;2.30;;;0.52;;
6243;SDS011;3155;49.940;8.450;2023-05-16T11:40:12;0.30;;;0.30;;
6243;SDS011;3155;49.940;8.450;2023-05-16T11:42:40;0.60;;;0.60;;
6243;SDS011;3155;49.940;8.450;2023-05-16T11:45:17;0.20;;;0.20;;
6243;SDS011;3155;49.940;8.450;2023-05-16T11:47:47;1.20;;;0.88;;
6243;SDS011;3155;49.940;8.450;2023-05-16T11:50:18;0.80;;;0.80;;
6243;SDS011;3155;49.940;8.450;2023-05-16T11:52:47;1.60;;;0.40;;
6243;SDS011;3155;49.940;8.450;2023-05-16T11:55:20;0.30;;;0.20;;
6243;SDS011;3155;49.940;8.450;2023-05-16T11:58:06;1.13;;;0.30;;
6243;SDS011;3155;49.940;8.450;2023-05-16T12:00:33;0.57;;;0.40;;
6243;SDS011;3155;49.940;8.450;2023-05-16T12:03:00;0.68;;;0.22;;
6243;SDS011;3155;49.940;8.450;2023-05-16T12:05:30;0.60;;;0.30;;
6243;SDS011;3155;49.940;8.450;2023-05-16T12:08:00;0.30;;;0.30;;
6243;SDS011;3155;49.940;8.450;2023-05-16T12:10:30;0.20;;;0.20;;
6243;SDS011;3155;49.940;8.450;2023-05-16T12:12:58;0.68;;;0.40;;
6243;SDS011;3155;49.940;8.450;2023-05-16T12:15:25;2.20;;;0.30;;
6243;SDS011;3155;49.940;8.450;2023-05-16T12:18:00;0.20;;;0.20;;
6243;SDS011;3155;49.940;8.450;2023-05-16T12:20:27;0.27;;;0.23;;
6243;SDS011;3155;49.940;8.450;2023-05-16T12:22:55;0.80;;;0.80;;
6243;SDS011;3155;49.940;8.450;2023-05-16T12:27:56;0.25;;;0.22;;
6243;SDS011;3155;49.940;8.450;2023-05-16T12:30:28;0.30;;;0.30;;
6243;SDS011;3155;49.940;8.450;2023-05-16T12:32:57;0.90;;;0.60;;
6243;SDS011;3155;49.940;8.450;2023-05-16T12:35:30;0.30;;;0.23;;
6243;SDS011;3155;49.940;8.450;2023-05-16T12:37:58;0.20;;;0.20;;
6243;SDS011;3155;49.940;8.450;2023-05-16T12:40:29;0.60;;;0.20;;
6243;SDS011;3155;49.940;8.450;2023-05-16T12:42:56;0.30;;;0.30;;
6243;SDS011;3155;49.940;8.450;2023-05-16T12:45:23;0.30;;;0.30;;
6243;SDS011;3155;49.940;8.450;2023-05-16T12:47:53;0.70;;;0.43;;
6243;SDS011;3155;49.940;8.450;2023-05-16T12:50:20;1.30;;;0.38;;
6243;SDS011;3155;49.940;8.450;2023-05-16T12:55:18;0.30;;;0.30;;
6243;SDS011;3155;49.940;8.450;2023-05-16T12:57:47;0.30;;;0.30;;
6243;SDS011;3155;49.940;8.450;2023-05-16T13:00:15;0.13;;;0.13;;
6243;SDS011;3155;49.940;8.450;2023-05-16T13:02:44;1.20;;;0.20;;
6243;SDS011;3155;49.940;8.450;2023-05-16T13:05:13;0.38;;;0.38;;
6243;SDS011;3155;49.940;8.450;2023-05-16T13:07:40;0.30;;;0.30;;
6243;SDS011;3155;49.940;8.450;2023-05-16T13:10:07;0.20;;;0.20;;
6243;SDS011;3155;49.940;8.450;2023-05-16T13:12:39;0.50;;;0.40;;
6243;SDS011;3155;49.940;8.450;2023-05-16T13:15:06;0.60;;;0.40;;
6243;SDS011;3155;49.940;8.450;2023-05-16T13:17:35;0.20;;;0.20;;
6243;SDS011;3155;49.940;8.450;2023-05-16T13:20:04;0.50;;;0.30;;
6243;SDS011;3155;49.940;8.450;2023-05-16T13:22:40;0.30;;;0.30;;
6243;SDS011;3155;49.940;8.450;2023-05-16T13:25:08;0.25;;;0.10;;
6243;SDS011;3155;49.940;8.450;2023-05-16T13:27:36;4.40;;;0.40;;
6243;SDS011;3155;49.940;8.450;2023-05-16T13:30:03;0.20;;;0.20;;
6243;SDS011;3155;49.940;8.450;2023-05-16T13:32:30;0.30;;;0.30;;
6243;SDS011;3155;49.940;8.450;2023-05-16T13:34:57;0.22;;;0.22;;
6243;SDS011;3155;49.940;8.450;2023-05-16T13:37:24;0.40;;;0.40;;
6243;SDS011;3155;49.940;8.450;2023-05-16T13:39:51;0.60;;;0.38;;
6243;SDS011;3155;49.940;8.450;2023-05-16T13:42:19;1.10;;;0.70;;
6243;SDS011;3155;49.940;8.450;2023-05-16T13:44:47;0.40;;;0.32;;
6243;SDS011;3155;49.940;8.450;2023-05-16T13:47:14;0.50;;;0.40;;
6243;SDS011;3155;49.940;8.450;2023-05-16T13:49:41;0.70;;;0.60;;
6243;SDS011;3155;49.940;8.450;2023-05-16T13:52:12;0.20;;;0.20;;
6243;SDS011;3155;49.940;8.450;2023-05-16T13:54:39;0.20;;;0.20;;
6243;SDS011;3155;49.940;8.450;2023-05-16T13:57:06;0.30;;;0.30;;
6243;SDS011;3155;49.940;8.450;2023-05-16T13:59:33;3.90;;;0.70;;
6243;SDS011;3155;49.940;8.450;2023-05-16T14:02:21;0.65;;;0.28;;
6243;SDS011;3155;49.940;8.450;2023-05-16T14:04:49;0.40;;;0.40;;
6243;SDS011;3155;49.940;8.450;2023-05-16T14:07:17;0.30;;;0.30;;
6243;SDS011;3155;49.940;8.450;2023-05-16T14:09:46;0.20;;;0.20;;
6243;SDS011;3155;49.940;8.450;2023-05-16T14:12:13;0.45;;;0.45;;
6243;SDS011;3155;49.940;8.450;2023-05-16T14:14:39;1.63;;;0.50;;
6243;SDS011;3155;49.940;8.450;2023-05-16T14:17:06;0.40;;;0.40;;
6243;SDS011;3155;49.940;8.450;2023-05-16T14:19:33;0.20;;;0.20;;
6243;SDS011;3155;49.940;8.450;2023-05-16T14:22:00;0.10;;;0.10;;
6243;SDS011;3155;49.940;8.450;2023-05-16T14:24:27;1.70;;;0.60;;
6243;SDS011;3155;49.940;8.450;2023-05-16T14:26:54;0.50;;;0.50;;
6243;SDS011;3155;49.940;8.450;2023-05-16T14:29:21;0.40;;;0.30;;
6243;SDS011;3155;49.940;8.450;2023-05-16T14:31:51;1.30;;;0.20;;
6243;SDS011;3155;49.940;8.450;2023-05-16T14:34:18;0.30;;;0.30;;
6243;SDS011;3155;49.940;8.450;2023-05-16T14:36:45;2.50;;;0.40;;
6243;SDS011;3155;49.940;8.450;2023-05-16T14:39:12;0.70;;;0.30;;
6243;SDS011;3155;49.940;8.450;2023-05-16T14:41:39;1.20;;;0.47;;
6243;SDS011;3155;49.940;8.450;2023-05-16T14:44:06;0.30;;;0.30;;
6243;SDS011;3155;49.940;8.450;2023-05-16T14:46:32;0.50;;;0.40;;
6243;SDS011;3155;49.940;8.450;2023-05-16T14:48:59;0.20;;;0.20;;
6243;SDS011;3155;49.940;8.450;2023-05-16T14:51:27;0.82;;;0.25;;
6243;SDS011;3155;49.940;8.450;2023-05-16T14:53:54;0.17;;;0.17;;
6243;SDS011;3155;49.940;8.450;2023-05-16T14:56:21;1.20;;;0.40;;
6243;SDS011;3155;49.940;8.450;2023-05-16T14:58:47;0.38;;;0.38;;
6243;SDS011;3155;49.940;8.450;2023-05-16T15:01:14;0.20;;;0.20;;
6243;SDS011;3155;49.940;8.450;2023-05-16T15:03:42;0.30;;;0.30;;
6243;SDS011;3155;49.940;8.450;2023-05-16T15:06:20;0.80;;;0.68;;
6243;SDS011;3155;49.940;8.450;2023-05-16T15:08:47;0.90;;;0.30;;
6243;SDS011;3155;49.940;8.450;2023-05-16T15:11:14;0.32;;;0.30;;
6243;SDS011;3155;49.940;8.450;2023-05-16T15:13:41;0.20;;;0.20;;
6243;SDS011;3155;49.940;8.450;2023-05-16T15:16:08;0.22;;;0.22;;
6243;SDS011;3155;49.940;8.450;2023-05-16T15:18:34;4.13;;;0.30;;
6243;SDS011;3155;49.940;8.450;2023-05-16T15:21:01;0.70;;;0.28;;
6243;SDS011;3155;49.940;8.450;2023-05-16T15:23:28;0.80;;;0.40;;
6243;SDS011;3155;49.940;8.450;2023-05-16T15:25:55;0.20;;;0.20;;
6243;SDS011;3155;49.940;8.450;2023-05-16T15:28:22;0.22;;;0.22;;
6243;SDS011;3155;49.940;8.450;2023-05-16T15:30:49;0.40;;;0.30;;
6243;SDS011;3155;49.940;8.450;2023-05-16T15:33:16;0.40;;;0.40;;
6243;SDS011;3155;49.940;8.450;2023-05-16T15:35:45;0.20;;;0.20;;
6243;SDS011;3155;49.940;8.450;2023-05-16T15:38:13;1.50;;;0.35;;
6243;SDS011;3155;49.940;8.450;2023-05-16T15:40:40;0.10;;;0.10;;
6243;SDS011;3155;49.940;8.450;2023-05-16T15:43:10;0.75;;;0.40;;
6243;SDS011;3155;49.940;8.450;2023-05-16T15:45:36;0.20;;;0.20;;
6243;SDS011;3155;49.940;8.450;2023-05-16T15:48:05;0.20;;;0.20;;
6243;SDS011;3155;49.940;8.450;2023-05-16T15:50:32;0.15;;;0.15;;
6243;SDS011;3155;49.940;8.450;2023-05-16T15:53:02;0.20;;;0.20;;
6243;SDS011;3155;49.940;8.450;2023-05-16T15:55:29;0.30;;;0.30;;
6243;SDS011;3155;49.940;8.450;2023-05-16T15:57:56;0.40;;;0.30;;
6243;SDS011;3155;49.940;8.450;2023-05-16T16:00:25;0.20;;;0.20;;
6243;SDS011;3155;49.940;8.450;2023-05-16T16:02:51;0.40;;;0.23;;
6243;SDS011;3155;49.940;8.450;2023-05-16T16:05:19;0.10;;;0.10;;
6243;SDS011;3155;49.940;8.450;2023-05-16T16:07:45;1.10;;;0.40;;
6243;SDS011;3155;49.940;8.450;2023-05-16T16:10:12;0.30;;;0.30;;